createdAt,value
2017-11-26T00:00:16.341Z,33
2017-11-26T00:01:22.278Z,32
2017-11-26T00:02:30.412Z,32
2017-11-26T00:03:38.721Z,32
2017-11-26T00:04:46.547Z,33
2017-11-26T00:05:54.627Z,32
2017-11-26T00:07:02.898Z,33
2017-11-26T00:08:10.802Z,32
2017-11-26T00:09:19.044Z,33
2017-11-26T00:10:26.985Z,32
2017-11-26T00:11:35.070Z,33
2017-11-26T00:12:43.156Z,32
2017-11-26T00:13:51.289Z,32
2017-11-26T00:14:59.415Z,32
2017-11-26T00:16:07.487Z,32
2017-11-26T00:17:15.507Z,32
2017-11-26T00:18:23.588Z,33
2017-11-26T00:19:31.677Z,32
2017-11-26T00:20:39.769Z,33
2017-11-26T00:21:47.856Z,33
2017-11-26T00:22:56.180Z,33
2017-11-26T00:24:04.219Z,33
2017-11-26T00:25:12.134Z,32
2017-11-26T00:26:20.396Z,32
2017-11-26T00:27:28.363Z,32
2017-11-26T00:28:36.377Z,32
2017-11-26T00:29:44.460Z,32
2017-11-26T00:30:52.590Z,32
2017-11-26T00:32:00.637Z,32
2017-11-26T00:32:00.649Z,32
2017-11-26T00:33:08.784Z,32
2017-11-26T00:34:17.072Z,32
2017-11-26T00:35:25.005Z,32
2017-11-26T00:36:34.646Z,32
2017-11-26T00:37:41.142Z,32
2017-11-26T00:38:49.155Z,32
2017-11-26T00:39:57.242Z,32
2017-11-26T00:41:05.327Z,32
2017-11-26T00:42:13.613Z,32
2017-11-26T00:43:21.543Z,32
2017-11-26T00:44:29.590Z,32
2017-11-26T00:45:37.678Z,32
2017-11-26T00:46:45.765Z,32
2017-11-26T00:47:53.851Z,32
2017-11-26T00:49:01.955Z,32
2017-11-26T00:50:10.024Z,32
2017-11-26T00:51:18.129Z,32
2017-11-26T00:52:26.274Z,32
2017-11-26T00:53:34.286Z,32
2017-11-26T00:54:42.370Z,32
2017-11-26T00:55:50.463Z,32
2017-11-26T00:56:58.543Z,32
2017-11-26T00:58:06.887Z,32
2017-11-26T00:59:14.722Z,32
2017-11-26T01:00:22.896Z,32
2017-11-26T01:01:30.897Z,32
2017-11-26T01:02:38.976Z,32
2017-11-26T01:03:47.065Z,32
2017-11-26T01:04:55.159Z,32
2017-11-26T01:06:03.375Z,32
2017-11-26T01:07:11.534Z,32
2017-11-26T01:08:19.586Z,32
2017-11-26T01:09:27.681Z,32
2017-11-26T01:10:35.767Z,32
2017-11-26T01:11:43.857Z,32
2017-11-26T01:12:52.033Z,32
2017-11-26T01:14:00.044Z,32
2017-11-26T01:15:08.131Z,32
2017-11-26T01:16:16.360Z,32
2017-11-26T01:17:24.381Z,32
2017-11-26T01:18:32.399Z,32
2017-11-26T01:19:40.483Z,33
2017-11-26T01:20:48.570Z,33
2017-11-26T01:21:56.693Z,33
2017-11-26T01:23:04.745Z,32
2017-11-26T01:24:12.995Z,32
2017-11-26T01:25:20.918Z,32
2017-11-26T01:26:29.005Z,33
2017-11-26T01:27:37.410Z,33
2017-11-26T01:28:45.194Z,33
2017-11-26T01:29:53.276Z,32
2017-11-26T01:31:01.493Z,33
2017-11-26T01:32:09.558Z,33
2017-11-26T01:33:20.444Z,33
2017-11-26T01:34:25.722Z,32
2017-11-26T01:35:33.832Z,32
2017-11-26T01:36:41.920Z,32
2017-11-26T01:37:50.230Z,33
2017-11-26T01:38:58.069Z,33
2017-11-26T01:40:06.198Z,33
2017-11-26T01:41:14.251Z,33
2017-11-26T01:42:22.427Z,33
2017-11-26T01:43:30.506Z,33
2017-11-26T01:44:38.589Z,33
2017-11-26T01:45:46.694Z,33
2017-11-26T01:46:54.691Z,33
2017-11-26T01:48:02.779Z,33
2017-11-26T01:49:10.868Z,33
2017-11-26T01:50:18.953Z,33
2017-11-26T01:51:27.039Z,32
2017-11-26T01:52:35.127Z,32
2017-11-26T01:53:43.576Z,32
2017-11-26T01:54:51.734Z,32
2017-11-26T01:55:59.872Z,32
2017-11-26T01:57:08.019Z,32
2017-11-26T01:58:16.018Z,32
2017-11-26T01:59:24.105Z,32
2017-11-26T02:00:32.231Z,32
2017-11-26T02:01:40.193Z,32
2017-11-26T02:02:48.358Z,32
2017-11-26T02:03:56.459Z,32
2017-11-26T02:05:04.450Z,32
2017-11-26T02:06:12.542Z,32
2017-11-26T02:07:20.624Z,32
2017-11-26T02:08:28.715Z,32
2017-11-26T02:09:36.795Z,32
2017-11-26T02:10:44.886Z,32
2017-11-26T02:11:52.972Z,32
2017-11-26T02:13:01.060Z,32
2017-11-26T02:14:09.219Z,32
2017-11-26T02:15:17.403Z,32
2017-11-26T02:16:25.366Z,32
2017-11-26T02:17:33.416Z,32
2017-11-26T02:18:41.599Z,32
2017-11-26T02:19:49.598Z,32
2017-11-26T02:20:57.766Z,32
2017-11-26T02:22:05.819Z,32
2017-11-26T02:23:13.853Z,32
2017-11-26T02:24:21.938Z,32
2017-11-26T02:25:30.157Z,32
2017-11-26T02:26:38.337Z,32
2017-11-26T02:27:46.333Z,32
2017-11-26T02:28:54.318Z,32
2017-11-26T02:30:02.372Z,32
2017-11-26T02:31:10.542Z,32
2017-11-26T02:32:18.640Z,32
2017-11-26T02:33:26.734Z,32
2017-11-26T02:34:34.720Z,32
2017-11-26T02:35:42.808Z,32
2017-11-26T02:36:50.893Z,32
2017-11-26T02:37:59.096Z,32
2017-11-26T02:39:07.290Z,32
2017-11-26T02:40:15.355Z,32
2017-11-26T02:41:24.696Z,32
2017-11-26T02:42:32.691Z,32
2017-11-26T02:43:40.792Z,32
2017-11-26T02:44:48.865Z,32
2017-11-26T02:45:57.011Z,32
2017-11-26T02:47:05.121Z,32
2017-11-26T02:48:13.224Z,31
2017-11-26T02:49:21.216Z,31
2017-11-26T02:50:29.300Z,32
2017-11-26T02:51:37.384Z,32
2017-11-26T02:52:45.471Z,32
2017-11-26T02:53:53.758Z,32
2017-11-26T02:55:01.844Z,32
2017-11-26T02:56:09.927Z,32
2017-11-26T02:57:18.034Z,31
2017-11-26T02:58:26.100Z,32
2017-11-26T02:59:34.189Z,31
2017-11-26T03:00:42.275Z,31
2017-11-26T03:01:50.366Z,31
2017-11-26T03:02:58.451Z,31
2017-11-26T03:04:06.534Z,31
2017-11-26T03:05:14.621Z,31
2017-11-26T03:06:22.713Z,31
2017-11-26T03:07:30.795Z,31
2017-11-26T03:08:38.891Z,31
2017-11-26T03:09:46.977Z,31
2017-11-26T03:10:55.072Z,31
2017-11-26T03:12:03.151Z,31
2017-11-26T03:13:11.239Z,31
2017-11-26T03:14:19.326Z,31
2017-11-26T03:15:27.445Z,31
2017-11-26T03:16:35.499Z,31
2017-11-26T03:17:43.587Z,31
2017-11-26T03:18:51.677Z,31
2017-11-26T03:19:59.765Z,31
2017-11-26T03:21:07.847Z,31
2017-11-26T03:22:15.932Z,31
2017-11-26T03:23:24.019Z,31
2017-11-26T03:24:32.178Z,31
2017-11-26T03:25:40.263Z,31
2017-11-26T03:26:48.352Z,31
2017-11-26T03:27:56.439Z,31
2017-11-26T03:29:04.527Z,31
2017-11-26T03:30:12.613Z,31
2017-11-26T03:31:20.703Z,31
2017-11-26T03:32:28.791Z,31
2017-11-26T03:33:36.874Z,31
2017-11-26T03:34:44.961Z,31
2017-11-26T03:35:53.048Z,31
2017-11-26T03:37:01.134Z,31
2017-11-26T03:38:09.222Z,31
2017-11-26T03:39:17.307Z,30
2017-11-26T03:40:25.400Z,31
2017-11-26T03:41:33.514Z,31
2017-11-26T03:42:41.571Z,31
2017-11-26T03:43:49.663Z,30
2017-11-26T03:44:57.745Z,30
2017-11-26T03:46:05.833Z,31
2017-11-26T03:47:13.919Z,31
2017-11-26T03:48:22.005Z,31
2017-11-26T03:49:30.094Z,30
2017-11-26T03:50:38.183Z,31
2017-11-26T03:51:46.272Z,31
2017-11-26T03:52:54.358Z,30
2017-11-26T03:54:02.441Z,31
2017-11-26T03:55:10.526Z,31
2017-11-26T03:56:18.613Z,31
2017-11-26T03:57:26.700Z,30
2017-11-26T03:58:34.792Z,31
2017-11-26T03:59:42.876Z,30
2017-11-26T04:00:50.963Z,30
2017-11-26T04:01:59.061Z,30
2017-11-26T04:03:07.136Z,30
2017-11-26T04:04:15.223Z,30
2017-11-26T04:05:23.318Z,30
2017-11-26T04:06:31.405Z,30
2017-11-26T04:07:39.496Z,30
2017-11-26T04:08:47.578Z,30
2017-11-26T04:09:55.665Z,30
2017-11-26T04:11:03.755Z,30
2017-11-26T04:12:11.841Z,31
2017-11-26T04:13:19.936Z,30
2017-11-26T04:14:28.015Z,30
2017-11-26T04:15:36.122Z,30
2017-11-26T04:16:44.188Z,30
2017-11-26T04:17:52.284Z,30
2017-11-26T04:19:00.367Z,30
2017-11-26T04:20:08.457Z,30
2017-11-26T04:21:16.537Z,30
2017-11-26T04:22:24.624Z,30
2017-11-26T04:23:32.707Z,30
2017-11-26T04:24:40.801Z,30
2017-11-26T04:25:48.898Z,30
2017-11-26T04:26:56.985Z,30
2017-11-26T04:28:05.071Z,30
2017-11-26T04:29:13.155Z,30
2017-11-26T04:30:21.260Z,30
2017-11-26T04:31:29.326Z,30
2017-11-26T04:32:37.429Z,30
2017-11-26T04:33:45.514Z,30
2017-11-26T04:34:53.701Z,30
2017-11-26T04:36:01.704Z,30
2017-11-26T04:37:09.792Z,30
2017-11-26T04:38:17.885Z,30
2017-11-26T04:39:25.969Z,30
2017-11-26T04:40:34.058Z,30
2017-11-26T04:41:42.142Z,30
2017-11-26T04:42:50.236Z,30
2017-11-26T04:43:58.325Z,30
2017-11-26T04:45:06.638Z,30
2017-11-26T04:46:14.597Z,30
2017-11-26T04:47:22.671Z,30
2017-11-26T04:48:30.753Z,30
2017-11-26T04:49:38.840Z,30
2017-11-26T04:50:46.923Z,30
2017-11-26T04:51:55.012Z,30
2017-11-26T04:53:03.107Z,30
2017-11-26T04:54:11.196Z,30
2017-11-26T04:55:19.289Z,30
2017-11-26T04:56:27.370Z,30
2017-11-26T04:57:35.466Z,30
2017-11-26T04:58:43.551Z,30
2017-11-26T04:59:51.644Z,30
2017-11-26T05:00:59.728Z,30
2017-11-26T05:02:07.813Z,30
2017-11-26T05:03:15.899Z,30
2017-11-26T05:04:23.988Z,30
2017-11-26T05:05:32.076Z,30
2017-11-26T05:06:40.160Z,30
2017-11-26T05:07:48.244Z,30
2017-11-26T05:08:56.336Z,30
2017-11-26T05:10:04.425Z,30
2017-11-26T05:11:12.515Z,30
2017-11-26T05:12:20.602Z,30
2017-11-26T05:13:28.689Z,30
2017-11-26T05:14:36.776Z,30
2017-11-26T05:15:44.860Z,30
2017-11-26T05:16:52.949Z,30
2017-11-26T05:18:01.038Z,30
2017-11-26T05:19:09.125Z,30
2017-11-26T05:20:17.209Z,30
2017-11-26T05:21:25.299Z,30
2017-11-26T05:22:33.382Z,30
2017-11-26T05:23:41.469Z,30
2017-11-26T05:24:49.557Z,30
2017-11-26T05:25:57.644Z,30
2017-11-26T05:27:05.735Z,30
2017-11-26T05:28:13.814Z,30
2017-11-26T05:29:21.904Z,30
2017-11-26T05:30:29.997Z,29
2017-11-26T05:31:38.093Z,29
2017-11-26T05:32:46.180Z,30
2017-11-26T05:33:54.266Z,30
2017-11-26T05:35:02.348Z,29
2017-11-26T05:36:10.448Z,29
2017-11-26T05:37:18.538Z,30
2017-11-26T05:38:26.626Z,30
2017-11-26T05:39:34.709Z,30
2017-11-26T05:40:42.795Z,29
2017-11-26T05:41:50.880Z,29
2017-11-26T05:42:58.974Z,29
2017-11-26T05:44:07.054Z,29
2017-11-26T05:45:15.140Z,29
2017-11-26T05:46:23.230Z,29
2017-11-26T05:47:31.317Z,29
2017-11-26T05:48:39.403Z,29
2017-11-26T05:49:47.490Z,29
2017-11-26T05:50:55.575Z,29
2017-11-26T05:52:03.660Z,30
2017-11-26T05:53:11.755Z,29
2017-11-26T05:54:19.836Z,29
2017-11-26T05:55:27.922Z,30
2017-11-26T05:56:36.016Z,29
2017-11-26T05:57:44.097Z,29
2017-11-26T05:58:52.216Z,29
2017-11-26T06:00:00.271Z,30
2017-11-26T06:01:08.358Z,30
2017-11-26T06:02:16.440Z,29
2017-11-26T06:03:24.528Z,30
2017-11-26T06:04:32.614Z,29
2017-11-26T06:05:40.704Z,30
2017-11-26T06:06:48.791Z,29
2017-11-26T06:07:56.878Z,29
2017-11-26T06:09:04.966Z,30
2017-11-26T06:10:13.052Z,30
2017-11-26T06:11:21.147Z,30
2017-11-26T06:12:29.232Z,30
2017-11-26T06:13:37.322Z,29
2017-11-26T06:14:45.406Z,29
2017-11-26T06:15:53.490Z,30
2017-11-26T06:17:01.592Z,30
2017-11-26T06:18:09.669Z,30
2017-11-26T06:19:17.757Z,29
2017-11-26T06:20:25.841Z,30
2017-11-26T06:21:33.929Z,30
2017-11-26T06:22:42.019Z,29
2017-11-26T06:23:50.105Z,29
2017-11-26T06:24:58.189Z,29
2017-11-26T06:26:06.276Z,29
2017-11-26T06:27:14.361Z,29
2017-11-26T06:28:22.447Z,29
2017-11-26T06:29:30.550Z,29
2017-11-26T06:30:38.626Z,29
2017-11-26T06:31:46.706Z,29
2017-11-26T06:32:54.794Z,29
2017-11-26T06:34:02.888Z,29
2017-11-26T06:35:10.967Z,29
2017-11-26T06:36:19.056Z,29
2017-11-26T06:37:27.141Z,29
2017-11-26T06:38:35.226Z,29
2017-11-26T06:39:43.311Z,29
2017-11-26T06:40:51.397Z,29
2017-11-26T06:41:59.487Z,29
2017-11-26T06:43:07.574Z,29
2017-11-26T06:44:15.663Z,29
2017-11-26T06:45:23.752Z,29
2017-11-26T06:46:31.830Z,29
2017-11-26T06:47:39.916Z,29
2017-11-26T06:48:47.998Z,29
2017-11-26T06:49:56.086Z,29
2017-11-26T06:51:04.178Z,29
2017-11-26T06:52:12.273Z,29
2017-11-26T06:53:20.351Z,29
2017-11-26T06:54:28.436Z,29
2017-11-26T06:55:36.522Z,29
2017-11-26T06:56:44.608Z,29
2017-11-26T06:57:52.693Z,29
2017-11-26T06:59:00.781Z,29
2017-11-26T07:00:08.867Z,29
2017-11-26T07:01:16.953Z,29
2017-11-26T07:02:25.038Z,29
2017-11-26T07:03:33.133Z,29
2017-11-26T07:04:41.222Z,29
2017-11-26T07:05:49.295Z,28
2017-11-26T07:06:57.382Z,29
2017-11-26T07:08:05.464Z,29
2017-11-26T07:09:13.552Z,29
2017-11-26T07:10:21.638Z,29
2017-11-26T07:11:29.727Z,29
2017-11-26T07:12:37.809Z,29
2017-11-26T07:13:45.897Z,29
2017-11-26T07:14:53.996Z,29
2017-11-26T07:16:02.069Z,29
2017-11-26T07:17:10.194Z,28
2017-11-26T07:18:18.244Z,28
2017-11-26T07:19:26.330Z,28
2017-11-26T07:20:34.420Z,29
2017-11-26T07:21:42.509Z,29
2017-11-26T07:22:50.591Z,28
2017-11-26T07:23:58.687Z,28
2017-11-26T07:25:06.779Z,28
2017-11-26T07:26:14.844Z,28
2017-11-26T07:27:22.930Z,28
2017-11-26T07:28:31.018Z,29
2017-11-26T07:29:39.146Z,28
2017-11-26T07:30:47.189Z,28
2017-11-26T07:31:55.276Z,29
2017-11-26T07:33:03.367Z,29
2017-11-26T07:34:11.446Z,29
2017-11-26T07:35:19.536Z,29
2017-11-26T07:36:27.625Z,28
2017-11-26T07:37:35.701Z,29
2017-11-26T07:38:43.795Z,28
2017-11-26T07:39:51.875Z,28
2017-11-26T07:40:59.962Z,28
2017-11-26T07:42:08.045Z,28
2017-11-26T07:43:16.132Z,28
2017-11-26T07:44:24.225Z,29
2017-11-26T07:45:32.302Z,28
2017-11-26T07:46:40.392Z,28
2017-11-26T07:47:48.473Z,28
2017-11-26T07:48:56.558Z,28
2017-11-26T07:50:04.718Z,28
2017-11-26T07:51:12.727Z,28
2017-11-26T07:52:20.815Z,28
2017-11-26T07:53:28.936Z,28
2017-11-26T07:54:37.022Z,28
2017-11-26T07:55:45.112Z,28
2017-11-26T07:56:53.192Z,28
2017-11-26T07:58:01.286Z,28
2017-11-26T07:59:09.375Z,28
2017-11-26T08:00:17.459Z,28
2017-11-26T08:01:25.545Z,29
2017-11-26T08:02:33.632Z,28
2017-11-26T08:03:41.717Z,29
2017-11-26T08:04:49.801Z,29
2017-11-26T08:05:57.888Z,29
2017-11-26T08:07:05.977Z,29
2017-11-26T08:08:14.057Z,29
2017-11-26T08:09:22.147Z,28
2017-11-26T08:10:30.238Z,28
2017-11-26T08:11:38.330Z,29
2017-11-26T08:12:46.416Z,28
2017-11-26T08:13:54.501Z,29
2017-11-26T08:15:02.597Z,29
2017-11-26T08:16:10.687Z,29
2017-11-26T08:17:18.761Z,29
2017-11-26T08:18:26.844Z,29
2017-11-26T08:19:34.928Z,29
2017-11-26T08:20:43.016Z,29
2017-11-26T08:21:51.136Z,29
2017-11-26T08:22:59.186Z,29
2017-11-26T08:24:07.272Z,29
2017-11-26T08:25:15.358Z,29
2017-11-26T08:26:23.441Z,29
2017-11-26T08:27:31.525Z,29
2017-11-26T08:28:39.613Z,29
2017-11-26T08:29:47.698Z,29
2017-11-26T08:30:55.782Z,29
2017-11-26T08:32:03.885Z,29
2017-11-26T08:33:11.953Z,29
2017-11-26T08:34:20.040Z,29
2017-11-26T08:35:28.721Z,29
2017-11-26T08:36:36.243Z,29
2017-11-26T08:37:44.299Z,29
2017-11-26T08:38:52.385Z,29
2017-11-26T08:40:00.473Z,29
2017-11-26T08:41:08.557Z,29
2017-11-26T08:42:16.786Z,29
2017-11-26T08:43:25.233Z,29
2017-11-26T08:44:32.954Z,29
2017-11-26T08:45:41.044Z,30
2017-11-26T08:46:49.129Z,30
2017-11-26T08:47:57.211Z,30
2017-11-26T08:49:05.295Z,30
2017-11-26T08:50:13.381Z,30
2017-11-26T08:51:21.468Z,30
2017-11-26T08:52:29.553Z,30
2017-11-26T08:53:37.639Z,30
2017-11-26T08:54:45.722Z,30
2017-11-26T08:55:53.811Z,30
2017-11-26T08:57:01.896Z,30
2017-11-26T08:58:09.981Z,31
2017-11-26T08:59:18.068Z,30
2017-11-26T09:00:26.152Z,30
2017-11-26T09:01:34.239Z,30
2017-11-26T09:02:42.349Z,31
2017-11-26T09:03:50.458Z,30
2017-11-26T09:04:58.945Z,31
2017-11-26T09:06:07.036Z,31
2017-11-26T09:07:15.121Z,31
2017-11-26T09:08:23.207Z,31
2017-11-26T09:09:31.292Z,31
2017-11-26T09:10:39.377Z,31
2017-11-26T09:11:47.472Z,31
2017-11-26T09:12:55.549Z,31
2017-11-26T09:14:03.637Z,31
2017-11-26T09:15:11.722Z,31
2017-11-26T09:16:19.808Z,31
2017-11-26T09:17:27.894Z,31
2017-11-26T09:18:35.978Z,31
2017-11-26T09:19:44.061Z,31
2017-11-26T09:20:52.162Z,31
2017-11-26T09:22:00.233Z,31
2017-11-26T09:23:08.318Z,31
2017-11-26T09:24:16.405Z,31
2017-11-26T09:25:24.492Z,31
2017-11-26T09:26:32.595Z,31
2017-11-26T09:27:40.661Z,31
2017-11-26T09:28:48.749Z,31
2017-11-26T09:29:56.831Z,31
2017-11-26T09:31:05.069Z,31
2017-11-26T09:32:13.027Z,31
2017-11-26T09:33:21.109Z,32
2017-11-26T09:34:29.194Z,31
2017-11-26T09:35:37.278Z,31
2017-11-26T09:36:45.369Z,31
2017-11-26T09:37:53.453Z,32
2017-11-26T09:39:01.546Z,31
2017-11-26T09:40:09.626Z,32
2017-11-26T09:41:17.711Z,32
2017-11-26T09:42:25.792Z,32
2017-11-26T09:43:33.880Z,32
2017-11-26T09:44:41.967Z,32
2017-11-26T09:45:50.058Z,32
2017-11-26T09:46:58.135Z,32
2017-11-26T09:48:06.225Z,32
2017-11-26T09:49:14.328Z,32
2017-11-26T09:50:22.419Z,32
2017-11-26T09:51:30.504Z,33
2017-11-26T09:52:38.602Z,32
2017-11-26T09:53:46.683Z,32
2017-11-26T09:54:54.774Z,33
2017-11-26T09:56:02.857Z,33
2017-11-26T09:57:10.938Z,33
2017-11-26T09:58:19.026Z,33
2017-11-26T09:59:27.111Z,33
2017-11-26T10:00:35.200Z,33
2017-11-26T10:01:43.282Z,33
2017-11-26T10:02:51.366Z,33
2017-11-26T10:03:59.457Z,33
2017-11-26T10:05:07.548Z,34
2017-11-26T10:06:15.643Z,34
2017-11-26T10:07:23.715Z,33
2017-11-26T10:08:31.800Z,34
2017-11-26T10:09:39.892Z,33
2017-11-26T10:10:47.974Z,33
2017-11-26T10:11:56.054Z,34
2017-11-26T10:13:04.140Z,34
2017-11-26T10:14:12.225Z,34
2017-11-26T10:15:20.314Z,34
2017-11-26T10:16:28.405Z,34
2017-11-26T10:17:36.485Z,34
2017-11-26T10:18:44.573Z,34
2017-11-26T10:19:52.657Z,34
2017-11-26T10:21:00.764Z,34
2017-11-26T10:22:08.855Z,34
2017-11-26T10:23:16.937Z,34
2017-11-26T10:24:25.025Z,35
2017-11-26T10:25:33.122Z,34
2017-11-26T10:26:41.209Z,35
2017-11-26T10:27:49.301Z,35
2017-11-26T10:28:57.384Z,35
2017-11-26T10:30:05.474Z,35
2017-11-26T10:31:13.558Z,35
2017-11-26T10:32:21.640Z,35
2017-11-26T10:33:29.802Z,35
2017-11-26T10:34:37.832Z,35
2017-11-26T10:35:45.913Z,35
2017-11-26T10:36:53.997Z,35
2017-11-26T10:38:02.083Z,35
2017-11-26T10:39:10.167Z,36
2017-11-26T10:40:18.253Z,35
2017-11-26T10:41:26.334Z,35
2017-11-26T10:42:34.432Z,35
2017-11-26T10:43:42.510Z,36
2017-11-26T10:44:50.593Z,36
2017-11-26T10:45:58.686Z,36
2017-11-26T10:47:06.767Z,36
2017-11-26T10:48:14.858Z,36
2017-11-26T10:49:22.935Z,36
2017-11-26T10:50:31.027Z,36
2017-11-26T10:51:39.128Z,36
2017-11-26T10:52:47.193Z,37
2017-11-26T10:53:55.286Z,37
2017-11-26T10:55:04.101Z,37
2017-11-26T10:56:11.953Z,37
2017-11-26T10:57:20.038Z,36
2017-11-26T10:58:28.154Z,37
2017-11-26T10:59:36.210Z,36
2017-11-26T11:00:44.300Z,37
2017-11-26T11:01:52.383Z,36
2017-11-26T11:03:00.463Z,36
2017-11-26T11:04:08.549Z,37
2017-11-26T11:05:16.635Z,37
2017-11-26T11:06:24.722Z,37
2017-11-26T11:07:32.808Z,37
2017-11-26T11:08:40.937Z,37
2017-11-26T11:09:48.979Z,37
2017-11-26T11:10:57.063Z,37
2017-11-26T11:12:05.163Z,37
2017-11-26T11:13:13.232Z,37
2017-11-26T11:14:21.316Z,37
2017-11-26T11:15:29.405Z,37
2017-11-26T11:16:37.493Z,37
2017-11-26T11:17:45.579Z,37
2017-11-26T11:18:53.661Z,37
2017-11-26T11:20:01.747Z,37
2017-11-26T11:21:09.840Z,37
2017-11-26T11:22:17.918Z,37
2017-11-26T11:23:26.005Z,37
2017-11-26T11:24:34.091Z,37
2017-11-26T11:25:42.172Z,37
2017-11-26T11:26:50.259Z,37
2017-11-26T11:27:58.345Z,37
2017-11-26T11:29:06.433Z,37
2017-11-26T11:30:14.517Z,37
2017-11-26T11:31:22.607Z,37
2017-11-26T11:32:30.697Z,37
2017-11-26T11:33:38.799Z,37
2017-11-26T11:34:46.908Z,37
2017-11-26T11:35:54.964Z,37
2017-11-26T11:37:03.056Z,37
2017-11-26T11:38:11.143Z,37
2017-11-26T11:39:19.223Z,37
2017-11-26T11:40:27.313Z,37
2017-11-26T11:41:35.396Z,37
2017-11-26T11:42:43.484Z,37
2017-11-26T11:43:51.568Z,37
2017-11-26T11:44:59.658Z,37
2017-11-26T11:46:07.740Z,37
2017-11-26T11:47:15.825Z,37
2017-11-26T11:48:23.912Z,37
2017-11-26T11:49:31.999Z,38
2017-11-26T11:50:40.085Z,37
2017-11-26T11:51:48.171Z,37
2017-11-26T11:52:56.259Z,37
2017-11-26T11:54:04.354Z,37
2017-11-26T11:55:12.505Z,37
2017-11-26T11:56:20.515Z,37
2017-11-26T11:57:28.599Z,37
2017-11-26T11:58:36.684Z,37
2017-11-26T11:59:44.773Z,37
2017-11-26T12:00:52.867Z,37
2017-11-26T12:02:00.956Z,37
2017-11-26T12:03:09.040Z,37
2017-11-26T12:04:17.126Z,37
2017-11-26T12:05:25.211Z,37
2017-11-26T12:06:33.295Z,37
2017-11-26T12:07:41.382Z,37
2017-11-26T12:08:49.470Z,37
2017-11-26T12:09:57.555Z,37
2017-11-26T12:11:05.644Z,37
2017-11-26T12:12:13.729Z,37
2017-11-26T12:13:21.814Z,37
2017-11-26T12:14:29.899Z,37
2017-11-26T12:15:37.985Z,37
2017-11-26T12:16:46.074Z,37
2017-11-26T12:17:54.160Z,37
2017-11-26T12:19:02.251Z,37
2017-11-26T12:20:10.628Z,37
2017-11-26T12:21:18.722Z,37
2017-11-26T12:22:26.789Z,37
2017-11-26T12:23:34.877Z,37
2017-11-26T12:24:42.960Z,37
2017-11-26T12:25:51.045Z,36
2017-11-26T12:26:59.130Z,36
2017-11-26T12:28:07.219Z,36
2017-11-26T12:29:15.304Z,37
2017-11-26T12:30:23.397Z,37
2017-11-26T12:31:31.476Z,36
2017-11-26T12:32:39.570Z,37
2017-11-26T12:33:47.650Z,36
2017-11-26T12:34:55.998Z,37
2017-11-26T12:36:04.077Z,36
2017-11-26T12:37:12.173Z,37
2017-11-26T12:38:20.316Z,37
2017-11-26T12:39:28.348Z,37
2017-11-26T12:40:36.442Z,37
2017-11-26T12:41:44.519Z,36
2017-11-26T12:42:52.607Z,36
2017-11-26T12:44:00.692Z,37
2017-11-26T12:45:08.776Z,37
2017-11-26T12:46:16.863Z,37
2017-11-26T12:47:24.951Z,37
2017-11-26T12:48:33.038Z,37
2017-11-26T12:49:41.124Z,37
2017-11-26T12:50:49.219Z,37
2017-11-26T12:51:57.304Z,37
2017-11-26T12:53:05.395Z,37
2017-11-26T12:54:13.604Z,37
2017-11-26T12:55:21.820Z,37
2017-11-26T12:56:29.763Z,37
2017-11-26T12:57:37.736Z,37
2017-11-26T12:58:46.221Z,37
2017-11-26T12:59:53.908Z,37
2017-11-26T13:01:02.010Z,37
2017-11-26T13:02:10.081Z,37
2017-11-26T13:03:18.167Z,37
2017-11-26T13:04:26.255Z,37
2017-11-26T13:05:34.341Z,36
2017-11-26T13:06:42.436Z,37
2017-11-26T13:07:50.616Z,37
2017-11-26T13:08:58.700Z,37
2017-11-26T13:10:06.786Z,37
2017-11-26T13:11:14.870Z,37
2017-11-26T13:12:22.991Z,37
2017-11-26T13:13:31.074Z,37
2017-11-26T13:14:39.162Z,37
2017-11-26T13:15:47.257Z,37
2017-11-26T13:16:55.341Z,37
2017-11-26T13:18:03.422Z,37
2017-11-26T13:19:11.508Z,37
2017-11-26T13:20:19.594Z,37
2017-11-26T13:21:27.679Z,37
2017-11-26T13:22:35.769Z,37
2017-11-26T13:23:43.853Z,37
2017-11-26T13:24:51.939Z,37
2017-11-26T13:26:00.027Z,37
2017-11-26T13:27:08.115Z,37
2017-11-26T13:28:16.198Z,37
2017-11-26T13:29:24.288Z,37
2017-11-26T13:30:32.375Z,37
2017-11-26T13:31:40.458Z,37
2017-11-26T13:32:48.545Z,37
2017-11-26T13:33:56.631Z,37
2017-11-26T13:35:04.718Z,37
2017-11-26T13:36:12.804Z,37
2017-11-26T13:37:20.909Z,37
2017-11-26T13:38:29.007Z,37
2017-11-26T13:39:37.060Z,37
2017-11-26T13:40:45.147Z,37
2017-11-26T13:41:53.254Z,37
2017-11-26T13:43:01.320Z,36
2017-11-26T13:44:09.408Z,36
2017-11-26T13:45:17.495Z,36
2017-11-26T13:46:25.583Z,36
2017-11-26T13:47:33.666Z,36
2017-11-26T13:48:41.754Z,36
2017-11-26T13:49:49.841Z,36
2017-11-26T13:50:57.927Z,36
2017-11-26T13:52:06.013Z,36
2017-11-26T13:53:14.125Z,36
2017-11-26T13:54:22.208Z,36
2017-11-26T13:55:30.296Z,36
2017-11-26T13:56:38.385Z,36
2017-11-26T13:57:46.481Z,36
2017-11-26T13:58:54.554Z,36
2017-11-26T14:00:02.643Z,36
2017-11-26T14:01:10.730Z,36
2017-11-26T14:02:18.816Z,36
2017-11-26T14:03:26.900Z,36
2017-11-26T14:04:34.987Z,36
2017-11-26T14:05:43.073Z,36
2017-11-26T14:06:51.164Z,36
2017-11-26T14:07:59.245Z,36
2017-11-26T14:09:07.368Z,36
2017-11-26T14:10:15.436Z,36
2017-11-26T14:11:23.516Z,36
2017-11-26T14:12:31.603Z,36
2017-11-26T14:13:39.690Z,36
2017-11-26T14:14:47.775Z,36
2017-11-26T14:15:55.875Z,36
2017-11-26T14:17:03.966Z,36
2017-11-26T14:18:12.055Z,36
2017-11-26T14:19:20.141Z,36
2017-11-26T14:20:28.226Z,36
2017-11-26T14:21:36.313Z,36
2017-11-26T14:22:44.397Z,35
2017-11-26T14:23:52.489Z,36
2017-11-26T14:25:00.674Z,35
2017-11-26T14:26:08.660Z,35
2017-11-26T14:27:16.746Z,36
2017-11-26T14:28:24.836Z,35
2017-11-26T14:29:32.925Z,35
2017-11-26T14:30:41.013Z,35
2017-11-26T14:31:49.099Z,35
2017-11-26T14:32:57.189Z,35
2017-11-26T14:34:05.290Z,35
2017-11-26T14:35:13.365Z,35
2017-11-26T14:36:21.441Z,36
2017-11-26T14:37:29.530Z,36
2017-11-26T14:38:37.618Z,36
2017-11-26T14:39:45.793Z,36
2017-11-26T14:40:53.799Z,36
2017-11-26T14:42:01.887Z,36
2017-11-26T14:43:09.972Z,36
2017-11-26T14:44:18.058Z,36
2017-11-26T14:45:26.144Z,36
2017-11-26T14:46:34.246Z,36
2017-11-26T14:47:42.327Z,36
2017-11-26T14:48:50.414Z,35
2017-11-26T14:49:58.499Z,35
2017-11-26T14:51:06.587Z,35
2017-11-26T14:52:14.672Z,35
2017-11-26T14:53:22.759Z,35
2017-11-26T14:54:30.845Z,35
2017-11-26T14:55:38.930Z,35
2017-11-26T14:56:47.021Z,35
2017-11-26T14:57:55.112Z,35
2017-11-26T14:59:03.197Z,35
2017-11-26T15:00:11.283Z,35
2017-11-26T15:01:19.419Z,35
2017-11-26T15:02:27.456Z,35
2017-11-26T15:03:35.548Z,35
2017-11-26T15:04:43.627Z,35
2017-11-26T15:05:51.714Z,35
2017-11-26T15:06:59.808Z,35
2017-11-26T15:08:07.891Z,35
2017-11-26T15:09:15.977Z,35
2017-11-26T15:10:24.063Z,35
2017-11-26T15:11:32.161Z,35
2017-11-26T15:12:40.236Z,35
2017-11-26T15:13:48.328Z,35
2017-11-26T15:14:56.446Z,35
2017-11-26T15:16:04.503Z,35
2017-11-26T15:17:12.602Z,35
2017-11-26T15:18:20.673Z,35
2017-11-26T15:19:28.767Z,35
2017-11-26T15:20:36.897Z,35
2017-11-26T15:21:44.933Z,35
2017-11-26T15:22:53.024Z,35
2017-11-26T15:24:01.119Z,35
2017-11-26T15:25:09.812Z,35
2017-11-26T15:26:17.402Z,35
2017-11-26T15:27:25.839Z,35
2017-11-26T15:28:33.476Z,35
2017-11-26T15:29:41.566Z,35
2017-11-26T15:30:49.650Z,35
2017-11-26T15:31:57.737Z,35
2017-11-26T15:33:05.829Z,35
2017-11-26T15:34:14.103Z,35
2017-11-26T15:35:22.002Z,35
2017-11-26T15:36:30.090Z,35
2017-11-26T15:37:38.175Z,35
2017-11-26T15:38:46.263Z,35
2017-11-26T15:39:54.352Z,35
2017-11-26T15:41:02.436Z,35
2017-11-26T15:42:10.523Z,35
2017-11-26T15:43:18.609Z,35
2017-11-26T15:44:26.696Z,35
2017-11-26T15:45:34.894Z,35
2017-11-26T15:46:42.867Z,35
2017-11-26T15:47:50.958Z,35
2017-11-26T15:48:59.058Z,35
2017-11-26T15:50:07.145Z,35
2017-11-26T15:51:15.234Z,35
2017-11-26T15:52:23.320Z,35
2017-11-26T15:53:31.409Z,35
2017-11-26T15:54:39.494Z,35
2017-11-26T15:55:47.580Z,35
2017-11-26T15:56:55.673Z,35
2017-11-26T15:58:03.753Z,35
2017-11-26T15:59:11.842Z,35
2017-11-26T16:00:19.926Z,35
2017-11-26T16:01:28.012Z,35
2017-11-26T16:02:36.099Z,35
2017-11-26T16:03:44.191Z,35
2017-11-26T16:04:52.273Z,35
2017-11-26T16:06:00.365Z,35
2017-11-26T16:07:08.460Z,35
2017-11-26T16:08:16.541Z,35
2017-11-26T16:09:24.627Z,35